Penngrove, California
Current Conditions -  °F | °C
As of 3:35 AM on Saturday 25 Oct 2014 (Local Time) from KO69 Reporting Station
Broken Clouds Broken Clouds  
Wind Chill: 64°   Ceiling: 2800
Heat Index: 64°   Visibility: 10mi
Dew Point: 57°   Wind: 8mph
Humidity: 77%   Direction: 180°S
Pressure: 29.9"   Gusts: NA
Location:  38.3°N, 122.67°W
Report Text: KO69 251035Z AUTO 18007KT 10SM FEW019 SCT023 BKN028 18/14 A2990 RMK AO1
Loading
Personal Weather Stations






























Interactive Weather Map New forecast layout! Learn more

10-Day Weather Forecast

Advertisements
Track Severe Weather on mobile